20°C Temp
13°C Dewpoint
64% Humidity
Temperature
26 KM/H
16 MPH
14 KTS
210°
South South
West

Wind Speed
Mostly Cloudy
Conditions
Pressure 1016.92 (hPa) - 30.03 (in)
Visibility 6.2 (mi) - 10.0 (km)

Current Conditions
LIPR
Location 4(km)
Metar :LIPR 232220Z AUTO 21014KT 9999 BKN099/// 20/13 Q1017
Sat 24th October 00:20 am

Airport
  Metar Aviation API Data Provided by https://www.checkwx.com/ PHP scripts by weather34.com ©2020